D/T METAR WX W/SPE G/SPE TEMP DEWP FEEL
25/05/22 01:50 EGFF 250050Z AUTO 26011KT 9999 BKN014 12/10 Q1012 12.7mph 12°C 10°C 13.3°C
25/05/22 01:20 EGFF 250020Z AUTO 25011KT 9999 BKN014 BKN019 OVC031 12/10 Q1012 12.7mph 12°C 10°C 13.3°C
25/05/22 00:50 EGFF 242350Z AUTO 26011KT 9999 BKN014 BKN019 12/10 Q1012 12.7mph 12°C 10°C 13.3°C
25/05/22 00:20 EGFF 242320Z AUTO 26008KT 9999 BKN014 BKN019 12/10 Q1012 9.2mph 12°C 10°C 13.3°C
24/05/22 23:50 EGFF 242250Z AUTO 26010KT 9999 SCT019 SCT027 12/10 Q1012 11.5mph 12°C 10°C 13.3°C
24/05/22 23:20 EGFF 242220Z AUTO 27011KT 9999 FEW018 12/09 Q1012 12.7mph 12°C 9°C 12.8°C
24/05/22 22:50 EGFF 242150Z AUTO 27009KT 9999 SCT014 BKN021 12/09 Q1012 10.4mph 12°C 9°C 12.8°C
24/05/22 22:20 EGFF 242120Z AUTO 27009KT 9999 SCT017 11/09 Q1012 10.4mph 11°C 9°C 11.8°C
24/05/22 21:50 EGFF 242050Z AUTO 27009KT 9999 FEW017 11/09 Q1012 10.4mph 11°C 9°C 11.8°C
24/05/22 21:20 EGFF 242020Z AUTO 28009KT 9999 FEW017 11/09 Q1011 10.4mph 11°C 9°C 11.8°C
24/05/22 20:50 EGFF 241950Z AUTO 28009KT 9999 FEW017 12/09 Q1011 10.4mph 12°C 9°C 12.8°C
24/05/22 20:20 EGFF 241920Z AUTO 28010KT 9999 NCD 12/09 Q1011 11.5mph 12°C 9°C 12.8°C
24/05/22 19:50 EGFF 241850Z AUTO 28012KT 9999 NCD 13/09 Q1011 13.8mph 13°C 9°C 13.8°C
24/05/22 19:20 EGFF 241820Z AUTO 28013KT 9999 FEW017 13/09 Q1011 15.0mph 13°C 9°C 13.8°C
24/05/22 18:50 EGFF 241750Z AUTO 28013KT 9999 NCD 13/09 Q1010 15.0mph 13°C 9°C 13.8°C
24/05/22 18:20 EGFF 241720Z AUTO 27016KT 9999 NCD 14/09 Q1010 18.4mph 14°C 9°C 14.8°C
24/05/22 17:50 EGFF 241650Z AUTO 27014KT 9999 NCD 14/09 Q1010 16.1mph 14°C 9°C 14.8°C
24/05/22 17:20 EGFF 241620Z AUTO 27013KT 240V310 9999 NCD 14/09 Q1010 15.0mph 14°C 9°C 14.8°C
24/05/22 16:50 EGFF 241550Z AUTO 27015KT 9999 NCD 14/09 Q1009 17.3mph 14°C 9°C 14.8°C
24/05/22 16:20 EGFF 241520Z AUTO 27014KT 9999 NCD 15/08 Q1009 16.1mph 15°C 8°C 15.4°C
24/05/22 15:50 EGFF 241450Z AUTO 27015KT 9999 FEW025 15/09 Q1009 17.3mph 15°C 9°C 15.8°C
24/05/22 15:20 EGFF 241420Z AUTO 26014KT 9999 NCD 15/09 Q1009 16.1mph 15°C 9°C 15.8°C
24/05/22 14:50 EGFF 241350Z AUTO 27015KT 9999 NCD 15/08 Q1009 17.3mph 15°C 8°C 15.4°C
24/05/22 14:20 EGFF 241320Z AUTO 26015KT 9999 NCD 15/09 Q1008 17.3mph 15°C 9°C 15.8°C
24/05/22 13:50 EGFF 241250Z AUTO 26014KT 9999 FEW022/// //////TCU 15/10 Q1008 16.1mph 15°C 10°C 16.3°C
24/05/22 13:20 EGFF 241220Z AUTO 26014KT 9999 FEW023 15/10 Q1008 16.1mph 15°C 10°C 16.3°C
24/05/22 12:50 EGFF 241150Z AUTO 26014KT 230V290 9999 NCD 15/10 Q1008 16.1mph 15°C 10°C 16.3°C
24/05/22 12:20 EGFF 241120Z AUTO 26012KT 230V290 9999 FEW021 SCT028 15/10 Q1007 13.8mph 15°C 10°C 16.3°C
24/05/22 11:50 EGFF 241050Z 26013KT 9999 SCT021 SCT029 14/09 Q1007 15.0mph 14°C 9°C 14.8°C
24/05/22 11:20 EGFF 241020Z 26012KT 9999 SCT019 SCT024 14/09 Q1007 13.8mph 14°C 9°C 14.8°C
24/05/22 10:50 EGFF 240950Z 28010KT 250V310 9999 SCT017 SCT023 14/10 Q1007 11.5mph 14°C 10°C 15.3°C
24/05/22 10:20 EGFF 240920Z AUTO 27011KT 9999 SCT019 SCT023 13/09 Q1007 12.7mph 13°C 9°C 13.8°C
24/05/22 09:50 EGFF 240850Z AUTO 27010KT 9999 SCT020 14/10 Q1007 11.5mph 14°C 10°C 15.3°C
24/05/22 09:20 EGFF 240820Z AUTO 29009KT 260V320 9999 SCT016 SCT022 13/09 Q1006 10.4mph 13°C 9°C 13.8°C
24/05/22 08:50 EGFF 240750Z AUTO 30009KT 9999 NCD 13/09 Q1006 10.4mph 13°C 9°C 13.8°C
24/05/22 08:20 EGFF 240720Z AUTO 29010KT 9999 NCD 12/09 Q1006 11.5mph 12°C 9°C 12.8°C
24/05/22 07:50 EGFF 240650Z AUTO 29010KT 9999 NCD 11/09 Q1005 11.5mph 11°C 9°C 11.8°C
24/05/22 07:20 EGFF 240620Z AUTO 29008KT 9999 NCD 10/09 Q1005 9.2mph 10°C 9°C 10.8°C
24/05/22 06:50 EGFF 240550Z AUTO 30007KT 9999 NCD 10/09 Q1005 8.1mph 10°C 9°C 10.8°C
24/05/22 05:50 EGFF 240450Z AUTO 30005KT 9999 NCD 08/08 Q1004 5.8mph 8°C 8°C 8.4°C
24/05/22 05:20 EGFF 240420Z AUTO 30007KT 9999 NCD 08/08 Q1004 8.1mph 8°C 8°C 8.4°C
24/05/22 04:50 EGFF 240350Z AUTO 31008KT 9999 NCD 08/08 Q1003 9.2mph 8°C 8°C 8.4°C
24/05/22 04:20 EGFF 240320Z AUTO 29008KT 9999 NCD 09/08 Q1003 9.2mph 9°C 8°C 9.4°C
24/05/22 03:50 EGFF 240250Z AUTO 29008KT 9999 NCD 09/08 Q1003 9.2mph 9°C 8°C 9.4°C
24/05/22 03:20 EGFF 240220Z AUTO 29009KT 9999 FEW047 09/08 Q1003 10.4mph 9°C 8°C 9.4°C
24/05/22 02:50 EGFF 240150Z AUTO 29008KT 9999 NCD 09/08 Q1003 9.2mph 9°C 8°C 9.4°C
24/05/22 01:50 EGFF 240050Z AUTO 30006KT 9999 NCD 09/09 Q1003 6.9mph 9°C 9°C 9.8°C
24/05/22 01:20 EGFF 240020Z AUTO 30007KT 9999 FEW020/// SCT030/// BKN038/// //////CB 10/09 Q1003 8.1mph 10°C 9°C 10.8°C
24/05/22 00:50 EGFF 232350Z AUTO 29008KT 9999 -RA FEW037/// //////CB 10/09 Q1003 -RA 9.2mph 10°C 9°C 10.8°C
24/05/22 00:20 EGFF 232320Z AUTO 30007KT 9999 FEW029/// SCT035/// OVC049/// //////TCU 10/09 Q1003 8.1mph 10°C 9°C 10.8°C
23/05/22 23:50 EGFF 232250Z AUTO 29007KT 9999 SCT047 10/09 Q1003 8.1mph 10°C 9°C 10.8°C
23/05/22 23:20 EGFF 232220Z AUTO 29007KT 9999 NCD 10/09 Q1002 8.1mph 10°C 9°C 10.8°C
23/05/22 22:50 EGFF 232150Z AUTO 29007KT 9999 //////CB 10/09 Q1002 8.1mph 10°C 9°C 10.8°C
23/05/22 22:20 EGFF 232120Z AUTO 29007KT 9999 SCT037/// BKN049/// //////CB 11/09 Q1003 8.1mph 11°C 9°C 11.8°C
23/05/22 21:50 EGFF 232050Z AUTO 29008KT 9999 -RA FEW022 BKN029 BKN039 11/10 Q1003 RERA -RA 9.2mph 11°C 10°C 12.3°C
23/05/22 21:20 EGFF 232020Z AUTO 31012KT 9999 -RA SCT038 BKN046 11/09 Q1002 -RA 13.8mph 11°C 9°C 11.8°C
23/05/22 20:50 EGFF 231950Z AUTO 29012KT 9999 NCD 12/10 Q1002 13.8mph 12°C 10°C 13.3°C
23/05/22 20:20 EGFF 231920Z AUTO 28012KT 9999 SCT037/// //////CB 12/10 Q1002 13.8mph 12°C 10°C 13.3°C
23/05/22 19:50 EGFF 231850Z AUTO 28011KT 9999 FEW015 BKN034 BKN044 12/09 Q1002 12.7mph 12°C 9°C 12.8°C
23/05/22 19:20 EGFF 231820Z AUTO 27013KT 9999 BKN015/// BKN020/// //////CB 12/10 Q1002 15.0mph 12°C 10°C 13.3°C
23/05/22 18:50 EGFF 231750Z 27014KT 9999 SCT015 SCT026 12/09 Q1002 16.1mph 12°C 9°C 12.8°C
23/05/22 18:20 EGFF 231720Z 27013KT 9999 SCT015 13/10 Q1002 15.0mph 13°C 10°C 14.3°C
23/05/22 17:50 EGFF 231650Z 27013KT 9999 SCT016 13/10 Q1002 15.0mph 13°C 10°C 14.3°C
23/05/22 17:20 EGFF 231620Z 27012KT 9999 SCT016 13/10 Q1002 13.8mph 13°C 10°C 14.3°C
23/05/22 16:50 EGFF 231550Z AUTO 27010KT 9999 SCT016/// //////CB 13/10 Q1002 11.5mph 13°C 10°C 14.3°C
23/05/22 16:20 EGFF 231520Z AUTO 27011KT 9999 FEW015/// SCT040/// //////TCU 13/10 Q1002 12.7mph 13°C 10°C 14.3°C
23/05/22 15:50 EGFF 231450Z AUTO 27010KT 9999 NCD 13/10 Q1002 11.5mph 13°C 10°C 14.3°C
23/05/22 15:20 EGFF 231420Z AUTO 27011KT 9999 NCD 13/10 Q1002 12.7mph 13°C 10°C 14.3°C
23/05/22 14:50 EGFF 231350Z AUTO 27011KT 9999 FEW020 14/10 Q1002 12.7mph 14°C 10°C 15.3°C
23/05/22 14:20 EGFF 231320Z AUTO 26012KT 230V290 9999 FEW020 15/11 Q1002 13.8mph 15°C 11°C 16.8°C
23/05/22 13:50 EGFF 231250Z AUTO 28010KT 9999 FEW031 14/10 Q1003 11.5mph 14°C 10°C 15.3°C
23/05/22 13:20 EGFF 231220Z AUTO 28011KT 9999 FEW019 13/10 Q1003 12.7mph 13°C 10°C 14.3°C
23/05/22 12:50 EGFF 231150Z AUTO 29010KT 9999 SCT016 14/10 Q1003 11.5mph 14°C 10°C 15.3°C
23/05/22 12:20 EGFF 231120Z AUTO 27010KT 9999 FEW030 13/10 Q1003 11.5mph 13°C 10°C 14.3°C
23/05/22 11:50 EGFF 231050Z AUTO 26011KT 9999 SCT015 13/10 Q1003 12.7mph 13°C 10°C 14.3°C
23/05/22 11:20 EGFF 231020Z AUTO 28009KT 9999 BKN015 BKN020 14/10 Q1003 10.4mph 14°C 10°C 15.3°C
23/05/22 10:50 EGFF 230950Z AUTO 27009KT 9999 SCT015 BKN020 13/10 Q1003 10.4mph 13°C 10°C 14.3°C
23/05/22 10:20 EGFF 230920Z AUTO 28009KT 9999 SCT016 SCT023 BKN038 13/10 Q1003 10.4mph 13°C 10°C 14.3°C
23/05/22 09:50 EGFF 230850Z AUTO 26009KT 240V300 9999 SCT015 BKN020 BKN028 13/10 Q1004 10.4mph 13°C 10°C 14.3°C
23/05/22 09:20 EGFF 230820Z AUTO 27008KT 9999 BKN015 BKN023 OVC036 13/11 Q1004 9.2mph 13°C 11°C 14.8°C
23/05/22 08:50 EGFF 230750Z AUTO 27008KT 9999 SCT015 BKN020 BKN025 13/11 Q1004 9.2mph 13°C 11°C 14.8°C
23/05/22 08:20 EGFF 230720Z AUTO 29008KT 9999 BKN012 13/11 Q1004 9.2mph 13°C 11°C 14.8°C
23/05/22 07:50 EGFF 230650Z AUTO 28007KT 9999 SCT013 BKN017 BKN023 12/11 Q1004 8.1mph 12°C 11°C 13.8°C
23/05/22 06:50 EGFF 230550Z AUTO 30004KT 9999 FEW018 12/11 Q1005 4.6mph 12°C 11°C 13.8°C
23/05/22 06:20 EGFF 230520Z AUTO 30005KT 9999 BKN044 12/11 Q1005 5.8mph 12°C 11°C 13.8°C
23/05/22 05:50 EGFF 230450Z AUTO 29006KT 9999 OVC038 12/11 Q1005 6.9mph 12°C 11°C 13.8°C
23/05/22 05:20 EGFF 230420Z AUTO 28005KT 9999 BKN030 BKN038 12/11 Q1005 5.8mph 12°C 11°C 13.8°C
23/05/22 04:50 EGFF 230350Z AUTO 28006KT 9999 FEW025 SCT030 12/11 Q1005 6.9mph 12°C 11°C 13.8°C
23/05/22 04:20 EGFF 230320Z AUTO 28006KT 9999 FEW021 12/11 Q1006 6.9mph 12°C 11°C 13.8°C
23/05/22 03:50 EGFF 230250Z AUTO 27007KT 9999 SCT021 12/11 Q1006 8.1mph 12°C 11°C 13.8°C
23/05/22 03:20 EGFF 230220Z AUTO 28008KT 9999 BKN017 12/11 Q1006 9.2mph 12°C 11°C 13.8°C
23/05/22 02:50 EGFF 230150Z AUTO 28008KT 9999 OVC016 12/12 Q1006 9.2mph 12°C 12°C 14.3°C
23/05/22 02:20 EGFF 230120Z AUTO 28007KT 9999 SCT008 BKN016 BKN021 12/12 Q1007 8.1mph 12°C 12°C 14.3°C
23/05/22 01:50 EGFF 230050Z AUTO 29009KT 9999 SCT007 13/12 Q1007 10.4mph 13°C 12°C 15.3°C
23/05/22 01:20 EGFF 230020Z AUTO 28007KT 9999 FEW007 OVC049 13/12 Q1007 8.1mph 13°C 12°C 15.3°C
23/05/22 00:50 EGFF 222350Z AUTO 29009KT 9999 BKN006 BKN016 13/12 Q1007 RERA REDZ 10.4mph 13°C 12°C 15.3°C